Latest Weather Observations for Albany Airport

IDW60801

Issued at 6:33 am WST Sunday 31 July 2016 (issued every 30 minutes, with the page automatically refreshed every 10 minutes)

About weather observations | Map of weather stations | Latest weather observations for WA | Other Formats
Station Details ID: 009999 Name: ALBANY AIRPORT Lat: -34.94 Lon: 117.82 Height: 68.4 m
Data from the previous 72 hours. | See also: Recent months at Albany Airport
Date/Time
WST
Temp
°C
App
Temp
°C
Dew
Point
°C
Rel
Hum
%
Delta-T
°C
Wind Press
QNH
hPa
Press
MSL
hPa
Rain since
9am
mm
Dir  Spd
km/h
Gust
km/h
Spd
kts
Gust
kts
31/06:30am 8.8 2.3 6.4 85 1.1 W 30 43 16 23 1008.5 - 4.8
31/06:03am 9.0 1.5 6.4 84 1.2 W 35 48 19 26 1008.6 - 4.6
31/06:00am 9.3 1.7 5.8 79 1.6 W 35 48 19 26 1008.4 1008.6 4.6
31/05:45am 9.5 2.7 7.0 84 1.2 W 32 59 17 32 1008.3 - 4.6
31/05:43am 9.5 3.2 7.2 85 1.1 W 30 59 16 32 1008.4 - 4.6
31/05:30am 9.7 3.2 6.5 80 1.5 W 30 43 16 23 1007.5 - 4.4
31/05:00am 10.4 4.3 8.1 86 1.1 WNW 30 50 16 27 1007.5 - 4.4
31/04:30am 10.1 5.2 8.5 90 0.8 WNW 24 33 13 18 1007.0 - 4.2
31/04:07am 10.5 4.6 8.9 90 0.8 WNW 30 39 16 21 1006.7 - 4.2
31/04:00am 10.5 4.2 9.1 91 0.7 W 32 43 17 23 1006.8 - 4.2
31/03:49am 10.5 5.0 9.1 91 0.7 WNW 28 39 15 21 1006.8 - 4.2
31/03:30am 10.5 5.8 9.1 91 0.7 W 24 33 13 18 1006.8 - 4.0
31/03:08am 10.5 5.8 9.3 92 0.6 WNW 24 33 13 18 1006.5 - 3.4
31/03:00am 10.7 4.9 9.3 91 0.7 WNW 30 50 16 27 1006.4 1006.6 3.4
31/02:51am 10.9 5.1 9.3 90 0.8 WNW 30 50 16 27 1006.5 - 3.4
31/02:48am 10.9 5.8 9.3 90 0.8 WNW 26 39 14 21 1006.6 - 3.2
31/02:30am 10.9 5.3 8.9 87 1.0 WNW 28 37 15 20 1006.3 - 2.8
31/02:00am 11.3 5.6 9.7 90 0.8 WNW 30 44 16 24 1006.3 - 2.8
31/01:30am 11.5 7.3 9.7 89 0.9 NW 22 33 12 18 1006.5 - 2.6
31/01:00am 11.3 6.4 9.9 91 0.7 NW 26 37 14 20 1006.5 - 2.6
31/12:30am 11.5 5.8 9.7 89 0.9 NW 30 43 16 23 1007.0 - 2.4
31/12:18am 11.5 6.0 9.3 86 1.1 WNW 28 50 15 27 1007.1 - 2.0
31/12:00am 11.6 4.0 9.2 85 1.2 NW 39 54 21 29 1006.8 1007.0 1.2
 
Date/Time
WST
Temp
°C
App
Temp
°C
Dew
Point
°C
Rel
Hum
%
Delta-T
°C
Wind Press
QNH
hPa
Press
MSL
hPa
Rain since
9am
mm
Dir  Spd
km/h
Gust
km/h
Spd
kts
Gust
kts
30/11:38pm 11.9 6.3 10.0 88 1.0 NW 30 41 16 22 1007.0 - 1.0
30/11:30pm 11.9 6.7 10.2 89 0.9 NW 28 37 15 20 1007.0 - 1.0
30/11:20pm 11.9 6.7 10.2 89 0.9 NW 28 41 15 22 1007.1 - 0.8
30/11:00pm 12.4 5.2 9.2 81 1.6 NW 37 52 20 28 1007.3 - 0.2
30/10:30pm 13.4 6.9 8.0 70 2.7 NW 32 44 17 24 1007.5 - 0.2
30/10:21pm 13.2 6.7 8.0 71 2.6 NW 32 50 17 27 1007.5 - 0.2
30/10:00pm 13.1 6.6 8.1 71 2.5 NW 32 43 17 23 1007.5 - 0.2
30/09:37pm 12.9 6.4 8.1 72 2.4 NW 32 57 17 31 1007.7 - 0.2
30/09:30pm 12.7 6.2 8.3 74 2.2 NW 32 44 17 24 1007.7 - 0.2
30/09:00pm 13.0 7.0 8.6 74 2.2 NNW 30 43 16 23 1007.4 1007.6 0.2
30/08:30pm 12.8 6.6 8.0 72 2.4 NW 30 41 16 22 1007.8 - 0.2
30/08:00pm 12.8 6.3 8.2 73 2.3 NW 32 43 17 23 1008.0 - 0.2
30/07:30pm 12.5 6.6 9.1 80 1.7 NW 30 43 16 23 1008.3 - 0.2
30/07:00pm 12.5 8.0 10.0 85 1.3 NW 24 33 13 18 1008.3 - 0.2
30/06:59pm 12.5 8.0 10.0 85 1.3 NW 24 33 13 18 1008.2 - 0.2
30/06:49pm 13.0 6.9 9.9 81 1.6 NW 32 44 17 24 1008.4 - 0.2
30/06:30pm 14.3 8.1 7.9 65 3.2 NW 30 39 16 21 1008.0 - 0.0
30/06:05pm 14.4 8.4 7.1 61 3.6 NW 28 46 15 25 1008.0 - 0.0
30/06:00pm 14.4 8.3 6.8 60 3.7 NW 28 37 15 20 1007.9 1008.1 0.0
30/05:30pm 14.8 8.4 6.9 59 3.9 NW 30 43 16 23 1007.6 - 0.0
30/05:00pm 16.0 10.3 6.7 54 4.6 NW 26 44 14 24 1007.6 - 0.0
30/04:30pm 16.6 9.8 4.9 46 5.6 NW 30 43 16 23 1007.4 - 0.0
30/04:00pm 17.0 9.3 5.4 46 5.6 NW 35 56 19 30 1007.6 - 0.0
30/03:37pm 17.6 11.5 6.5 48 5.5 WNW 28 46 15 25 1007.6 - 0.0
30/03:30pm 17.7 11.2 6.7 48 5.5 WNW 30 46 16 25 1007.7 - 0.0
30/03:29pm 17.6 11.4 6.3 47 5.6 WNW 28 46 15 25 1007.7 - 0.0
30/03:00pm 17.1 9.2 6.1 48 5.4 NW 37 50 20 27 1008.0 1008.2 0.0
30/02:30pm 17.2 9.5 5.5 46 5.7 NW 35 46 19 25 1008.1 - 0.0
30/02:08pm 17.4 11.0 5.2 44 5.9 NW 28 46 15 25 1008.1 - 0.0
30/02:00pm 17.3 9.9 5.0 44 5.9 NW 33 46 18 25 1008.2 - 0.0
30/01:47pm 17.4 9.9 4.3 42 6.2 NW 33 57 18 31 1008.4 - 0.0
30/01:30pm 17.2 9.3 4.6 43 6.0 NW 35 52 19 28 1008.6 - 0.0
30/01:25pm 17.3 9.9 5.0 44 5.9 NW 33 52 18 28 1008.7 - 0.0
30/01:00pm 17.1 9.8 4.5 43 6.0 WNW 32 48 17 26 1009.1 - 0.0
30/12:37pm 17.3 9.1 4.5 42 6.1 WNW 37 56 20 30 1009.6 - 0.0
30/12:30pm 17.1 8.9 4.5 43 6.0 WNW 37 50 20 27 1009.7 - 0.0
30/12:00pm 16.3 9.7 6.0 50 5.0 NW 30 43 16 23 1010.2 1010.4 0.0
30/11:30am 16.7 10.2 6.3 50 5.1 NW 30 48 16 26 1010.8 - 0.0
30/11:27am 16.6 10.6 6.9 52 4.8 NW 28 48 15 26 1010.9 - 0.0
30/11:00am 15.7 8.8 7.3 57 4.2 NW 33 46 18 25 1011.3 - 0.0
30/10:30am 15.2 9.6 7.1 58 4.0 NW 26 37 14 20 1011.9 - 0.0
30/10:00am 14.1 8.3 7.9 66 3.1 NW 28 35 15 19 1012.2 - 0.0
30/09:34am 12.9 7.1 8.1 72 2.4 NW 28 50 15 27 1012.3 - 0.0
30/09:30am 12.8 7.5 8.6 75 2.1 NW 26 35 14 19 1012.4 - 0.0
30/09:00am 12.6 7.5 7.5 71 2.5 NW 24 35 13 19 1012.4 1012.5 1.0
30/08:30am 11.7 7.2 6.9 72 2.3 NNW 20 28 11 15 1012.3 - 1.0
30/08:00am 11.2 6.6 6.6 73 2.2 NNW 20 30 11 16 1012.2 - 1.0
30/07:30am 10.1 6.5 6.9 80 1.5 NNW 15 22 8 12 1012.0 - 1.0
30/07:00am 9.6 6.3 6.6 81 1.4 NNW 13 17 7 9 1011.8 - 1.0
30/06:30am 10.1 5.5 6.7 79 1.6 NW 20 28 11 15 1011.7 - 1.0
30/06:00am 10.0 5.9 6.4 78 1.7 NNW 17 20 9 11 1011.4 1011.6 1.0
30/05:30am 9.7 6.4 6.5 80 1.5 NNW 13 17 7 9 1011.2 - 1.0
30/05:00am 10.7 6.6 6.2 74 2.1 WNW 17 24 9 13 1010.9 - 1.0
30/04:30am 11.6 6.6 6.3 70 2.5 WNW 22 26 12 14 1010.8 - 1.0
30/04:00am 11.1 6.8 6.9 75 2.0 NW 19 28 10 15 1010.5 - 1.0
30/03:30am 11.2 7.3 7.0 75 2.0 NW 17 24 9 13 1010.1 - 1.0
30/03:00am 11.3 7.1 7.6 78 1.8 WNW 19 35 10 19 1010.0 1010.2 1.0
30/02:30am 12.1 8.7 7.6 74 2.2 W 15 24 8 13 1009.9 - 1.0
30/02:00am 12.4 7.9 7.0 69 2.6 WNW 20 30 11 16 1009.5 - 1.0
30/01:30am 13.1 6.6 6.7 65 3.1 W 30 39 16 21 1009.3 - 1.0
30/01:00am 13.6 6.0 7.5 66 3.0 W 37 52 20 28 1009.2 - 1.0
30/12:32am 14.0 7.6 6.8 62 3.5 W 30 56 16 30 1008.4 - 1.0
30/12:30am 13.8 7.4 7.1 64 3.3 W 30 41 16 22 1008.3 - 1.0
30/12:01am 14.2 7.0 7.5 64 3.3 W 35 54 19 29 1008.2 - 1.0
30/12:00am 14.1 6.5 7.7 65 3.2 W 37 54 20 29 1008.2 1008.4 1.0
 
Date/Time
WST
Temp
°C
App
Temp
°C
Dew
Point
°C
Rel
Hum
%
Delta-T
°C
Wind Press
QNH
hPa
Press
MSL
hPa
Rain since
9am
mm
Dir  Spd
km/h
Gust
km/h
Spd
kts
Gust
kts
29/11:38pm 14.4 8.0 8.5 67 3.0 W 32 52 17 28 1007.9 - 1.0
29/11:30pm 14.3 8.1 9.2 71 2.6 W 32 46 17 25 1007.9 - 1.0
29/11:00pm 14.6 8.6 10.2 75 2.3 W 32 44 17 24 1007.6 - 1.0
29/10:30pm 14.7 8.3 10.7 77 2.1 W 35 54 19 29 1007.1 - 1.0
29/10:09pm 14.4 9.0 12.2 87 1.2 W 32 54 17 29 1006.7 - 1.0
29/10:05pm 14.3 9.8 12.7 90 0.9 W 28 41 15 22 1006.8 - 1.0
29/10:00pm 14.2 9.8 12.9 92 0.7 W 28 41 15 22 1006.8 - 1.0
29/09:51pm 14.1 8.8 13.2 94 0.5 W 33 52 18 28 1007.0 - 1.0
29/09:42pm 14.9 7.6 12.9 88 1.1 W 43 52 23 28 1006.7 - 0.4
29/09:36pm 15.5 9.3 12.6 83 1.6 NW 37 61 20 33 1006.2 - 0.2
29/09:33pm 16.3 10.6 11.9 75 2.4 NW 33 61 18 33 1006.0 - 0.0
29/09:30pm 16.8 11.1 11.3 70 3.0 NW 32 46 17 25 1005.6 - 0.0
29/09:11pm 17.1 11.6 10.6 65 3.5 NW 30 48 16 26 1005.1 - 0.0
29/09:00pm 17.0 10.9 10.5 65 3.5 NW 33 44 18 24 1005.0 1005.2 0.0
29/08:30pm 16.5 11.3 10.3 67 3.3 NW 28 37 15 20 1004.8 - 0.0
29/08:00pm 16.4 10.8 10.0 66 3.4 NNW 30 41 16 22 1004.9 - 0.0
29/07:30pm 16.5 10.4 9.9 65 3.5 NW 32 46 17 25 1004.9 - 0.0
29/07:26pm 16.7 11.4 9.7 63 3.7 NW 28 46 15 25 1004.8 - 0.0
29/07:00pm 16.8 12.8 9.1 60 4.0 NNW 20 26 11 14 1004.5 - 0.0
29/06:30pm 17.8 10.1 8.8 55 4.7 NW 39 57 21 31 1004.1 - 0.0
29/06:24pm 17.9 12.1 9.4 57 4.5 NW 30 50 16 27 1004.1 - 0.0
29/06:00pm 17.8 12.9 11.4 66 3.5 NW 28 39 15 21 1003.9 1004.1 0.0
29/05:30pm 17.7 13.9 13.5 76 2.4 NNW 26 35 14 19 1003.5 - 0.0
29/05:00pm 18.1 13.5 14.5 79 2.1 NNW 32 46 17 25 1003.3 - 0.0
29/04:30pm 19.2 14.5 13.1 68 3.5 NNW 30 50 16 27 1003.0 - 0.0
29/04:00pm 19.5 14.0 12.6 64 3.9 NNW 33 59 18 32 1003.1 - 0.0
29/03:53pm 19.6 14.2 12.3 62 4.1 NNW 32 59 17 32 1003.3 - 0.0
29/03:30pm 19.4 15.0 11.7 61 4.3 NNW 26 37 14 20 1003.5 - 0.0
29/03:00pm 19.1 13.4 11.1 59 4.4 NNW 32 46 17 25 1004.2 1004.4 0.0
29/02:47pm 19.5 14.0 10.5 56 4.9 NNW 30 48 16 26 1004.6 - 0.0
29/02:30pm 19.5 13.6 10.3 55 5.0 NNW 32 43 17 23 1005.1 - 0.0
29/02:00pm 19.8 13.8 8.6 48 5.9 NNW 30 56 16 30 1005.3 - 0.0
29/01:30pm 19.5 13.9 8.9 50 5.6 NNW 28 43 15 23 1006.1 - 0.0
29/01:00pm 18.3 12.4 7.3 48 5.6 N 28 43 15 23 1006.8 - 0.0
29/12:30pm 18.6 14.2 8.9 53 5.1 N 22 28 12 15 1007.6 - 0.0
29/12:00pm 16.4 12.5 9.3 63 3.7 N 20 30 11 16 1009.1 1009.3 0.0
29/11:30am 15.1 10.3 8.8 66 3.2 N 24 32 13 17 1010.5 - 0.0
29/11:00am 15.3 12.6 10.2 71 2.7 N 15 24 8 13 1011.2 - 0.0
29/10:30am 14.0 12.7 11.4 84 1.4 N 9 11 5 6 1012.0 - 0.0
29/10:00am 12.6 11.2 10.9 89 0.9 NNE 9 11 5 6 1012.4 - 0.0
29/09:30am 11.4 10.0 9.6 89 0.9 NE 7 9 4 5 1013.3 - 0.0
29/09:00am 10.4 8.6 9.6 95 0.4 NNE 9 11 5 6 1013.6 1013.7 0.2
29/08:30am 9.3 7.8 9.3 100 0.0 NNE 7 9 4 5 1014.2 - 0.2
29/08:14am 8.9 7.0 8.9 100 0.0 NNE 9 11 5 6 1014.5 - 0.2
29/08:00am 8.5 6.4 8.3 99 0.1 NE 9 11 5 6 1014.4 - 0.2
29/07:30am 6.9 4.5 6.9 100 0.0 NE 9 11 5 6 1014.9 - 0.2
29/07:00am 6.9 5.0 6.9 100 0.0 NNE 6 7 3 4 1015.4 - 0.2
29/06:45am 6.9 4.9 6.9 100 0.0 NE 7 9 4 5 1015.5 - 0.2
29/06:30am 7.2 5.2 7.2 100 0.0 ENE 7 7 4 4 1015.6 - 0.2
29/06:00am 8.0 7.5 8.0 100 0.0 CALM 0 0 0 0 1015.8 1016.0 0.2
29/05:50am 7.8 7.3 7.8 100 0.0 CALM 0 0 0 0 1016.1 - 0.2
29/05:30am 7.8 7.3 7.8 100 0.0 CALM 0 6 0 3 1016.1 - 0.2
29/05:00am 8.6 6.6 8.6 100 0.0 NNE 9 13 5 7 1016.5 - 0.2
29/04:30am 10.1 7.7 9.9 99 0.1 NE 13 17 7 9 1016.4 - 0.2
29/04:00am 9.4 6.7 9.0 97 0.2 ENE 13 15 7 8 1016.8 - 0.2
29/03:30am 9.0 7.1 9.0 100 0.0 NE 9 11 5 6 1017.2 - 0.2
29/03:29am 9.0 7.1 9.0 100 0.0 NE 9 11 5 6 1017.2 - 0.2
29/03:16am 10.1 8.0 9.9 99 0.1 NE 11 15 6 8 1017.3 - 0.2
29/03:00am 9.7 7.4 8.9 95 0.4 NE 11 13 6 7 1017.7 1017.9 0.0
29/02:49am 9.7 7.9 9.5 99 0.1 NE 9 11 5 6 1017.9 - 0.0
29/02:30am 10.3 8.3 10.3 100 0.0 NE 11 13 6 7 1018.0 - 0.0
29/02:00am 10.2 7.8 10.2 100 0.0 ENE 13 15 7 8 1018.2 - 0.0
29/01:56am 10.3 7.9 10.1 99 0.1 ENE 13 17 7 9 1018.2 - 0.0
29/01:30am 8.7 7.0 8.5 99 0.1 NE 7 9 4 5 1018.6 - 0.0
29/01:00am 9.2 7.9 9.2 100 0.0 NE 6 7 3 4 1019.0 - 0.0
29/12:30am 8.6 7.0 8.6 100 0.0 ENE 7 9 4 5 1019.1 - 0.0
29/12:00am 9.7 8.0 9.7 100 0.0 NE 9 11 5 6 1019.5 1019.7 0.0
 
Date/Time
WST
Temp
°C
App
Temp
°C
Dew
Point
°C
Rel
Hum
%
Delta-T
°C
Wind Press
QNH
hPa
Press
MSL
hPa
Rain since
9am
mm
Dir  Spd
km/h
Gust
km/h
Spd
kts
Gust
kts
28/11:30pm 10.7 10.8 10.3 97 0.2 CALM 0 0 0 0 1020.0 - 0.0
28/11:00pm 10.6 10.4 10.4 99 0.1 NNE 2 6 1 3 1020.2 - 0.0
28/10:30pm 11.0 10.2 11.0 100 0.0 NNE 6 7 3 4 1020.4 - 0.0
28/10:15pm 11.9 11.3 11.7 99 0.1 NNE 6 6 3 3 1020.6 - 0.0
28/10:00pm 11.7 12.2 11.5 99 0.1 CALM 0 6 0 3 1020.8 - 0.0
28/09:30pm 11.7 10.5 11.5 99 0.1 N 9 11 5 6 1020.8 - 0.0
28/09:14pm 11.2 10.4 11.2 100 0.0 N 6 7 3 4 1020.9 - 0.0
28/09:00pm 10.9 10.0 10.5 97 0.2 N 6 7 3 4 1020.8 1021.0 0.0
28/08:30pm 11.3 10.5 11.1 99 0.1 NNE 6 9 3 5 1020.8 - 0.0
28/08:00pm 12.0 12.5 11.6 97 0.2 CALM 0 0 0 0 1020.8 - 0.0
28/07:40pm 12.5 13.2 12.1 97 0.2 CALM 0 0 0 0 1020.9 - 0.0
28/07:30pm 12.5 13.1 11.9 96 0.3 CALM 0 0 0 0 1020.8 - 0.0
28/07:00pm 13.3 13.0 12.7 96 0.3 NW 6 7 3 4 1021.0 - 0.0
28/06:30pm 13.6 14.5 12.9 95 0.4 CALM 0 0 0 0 1021.0 - 0.0
28/06:00pm 13.8 14.6 12.7 93 0.6 CALM 0 0 0 0 1020.7 1020.9 0.0
28/05:30pm 13.8 13.5 12.7 93 0.6 S 6 7 3 4 1020.2 - 0.0
28/05:08pm 13.9 13.8 13.2 96 0.4 S 6 7 3 4 1020.1 - 0.0
28/05:00pm 14.0 13.7 13.3 96 0.4 SSW 7 11 4 6 1020.0 - 0.0
28/04:55pm 14.1 13.4 13.2 94 0.5 SSW 9 15 5 8 1019.9 - 0.0
28/04:48pm 14.3 12.8 13.0 92 0.7 SSW 13 20 7 11 1019.8 - 0.0
28/04:42pm 14.8 13.5 12.6 87 1.2 S 11 20 6 11 1019.8 - 0.0
28/04:30pm 15.1 13.4 12.4 84 1.5 S 13 17 7 9 1019.8 - 0.0
28/04:00pm 15.4 13.7 12.5 83 1.6 S 13 17 7 9 1019.7 - 0.0
28/03:30pm 15.8 13.5 12.9 83 1.6 S 17 22 9 12 1019.6 - 0.0
28/03:00pm 16.9 14.5 12.8 77 2.3 SW 17 22 9 12 1019.4 1019.6 0.0
28/02:30pm 18.6 16.0 11.9 65 3.7 SW 17 22 9 12 1019.2 - 0.0
28/02:00pm 18.8 15.6 10.0 56 4.7 WSW 17 20 9 11 1019.2 - 0.0
28/01:30pm 18.6 15.5 10.4 59 4.4 SW 17 24 9 13 1019.5 - 0.0
28/01:00pm 18.6 15.8 10.0 57 4.6 W 15 20 8 11 1019.6 - 0.0
28/12:30pm 17.9 15.5 10.0 60 4.2 W 13 17 7 9 1019.8 - 0.0
28/12:00pm 17.3 15.0 10.3 63 3.7 W 13 17 7 9 1020.4 1020.6 0.0
28/11:30am 17.0 14.3 10.2 64 3.6 W 15 20 8 11 1020.9 - 0.0
28/11:00am 16.4 12.8 9.9 65 3.4 WNW 19 22 10 12 1021.3 - 0.0
28/10:30am 16.5 13.6 9.6 63 3.6 WNW 15 20 8 11 1021.6 - 0.0
28/10:00am 15.3 12.8 9.7 69 2.9 WNW 13 17 7 9 1021.5 - 0.0
28/09:30am 14.5 12.0 9.6 72 2.5 WNW 13 19 7 10 1021.6 - 0.0
28/09:00am 12.3 10.1 9.3 82 1.5 NW 11 13 6 7 1021.8 1022.0 0.0
28/08:30am 10.9 9.1 9.3 90 0.8 W 9 11 5 6 1021.9 - 0.0
28/08:00am 10.4 9.1 9.2 92 0.6 NW 6 9 3 5 1021.8 - 0.0
28/07:30am 8.3 7.8 7.9 97 0.2 CALM 0 0 0 0 1021.6 - 0.0
28/07:00am 8.0 6.3 7.4 96 0.3 NW 6 7 3 4 1021.4 - 0.0

Other Formats:

Comma delimited format used in spreadsheet applications
http://www.bom.gov.au/fwo/IDW60801/IDW60801.94802.axf

JavaScript Object Notation format (JSON) in row-major order
http://www.bom.gov.au/fwo/IDW60801/IDW60801.94802.json